sensor_id;sensor_type;location;lat;lon;timestamp;pressure;altitude;pressure_sealevel;temperature;humidity
50380;BME280;37474;59.468;18.040;2023-08-30T00:00:03;100717.06;;;13.31;100.00
50380;BME280;37474;59.468;18.040;2023-08-30T00:02:31;100674.63;;;13.02;100.00
50380;BME280;37474;59.468;18.040;2023-08-30T00:05:04;100714.69;;;13.28;100.00
50380;BME280;37474;59.468;18.040;2023-08-30T00:07:33;100718.66;;;13.34;100.00
50380;BME280;37474;59.468;18.040;2023-08-30T00:10:01;100714.56;;;13.30;100.00
50380;BME280;37474;59.468;18.040;2023-08-30T00:12:30;100702.66;;;13.26;100.00
50380;BME280;37474;59.468;18.040;2023-08-30T00:14:58;100703.59;;;13.39;100.00
50380;BME280;37474;59.468;18.040;2023-08-30T00:17:26;100704.56;;;13.51;100.00
50380;BME280;37474;59.468;18.040;2023-08-30T00:19:54;100709.34;;;13.44;100.00
50380;BME280;37474;59.468;18.040;2023-08-30T00:22:22;100714.00;;;13.39;100.00
50380;BME280;37474;59.468;18.040;2023-08-30T00:24:51;100708.63;;;13.28;100.00
50380;BME280;37474;59.468;18.040;2023-08-30T00:27:20;100703.03;;;13.19;100.00
50380;BME280;37474;59.468;18.040;2023-08-30T00:29:48;100690.00;;;13.19;100.00
50380;BME280;37474;59.468;18.040;2023-08-30T00:32:16;100697.00;;;13.19;100.00
50380;BME280;37474;59.468;18.040;2023-08-30T00:34:44;100690.84;;;13.20;100.00
50380;BME280;37474;59.468;18.040;2023-08-30T00:37:12;100693.09;;;13.12;100.00
50380;BME280;37474;59.468;18.040;2023-08-30T00:39:40;100665.25;;;13.00;100.00
50380;BME280;37474;59.468;18.040;2023-08-30T00:42:09;100678.06;;;13.03;100.00
50380;BME280;37474;59.468;18.040;2023-08-30T00:44:37;100620.13;;;12.58;100.00
50380;BME280;37474;59.468;18.040;2023-08-30T00:47:05;100688.25;;;13.20;100.00
50380;BME280;37474;59.468;18.040;2023-08-30T00:49:34;100685.84;;;13.17;100.00
50380;BME280;37474;59.468;18.040;2023-08-30T00:52:05;100690.06;;;13.05;100.00
50380;BME280;37474;59.468;18.040;2023-08-30T00:54:34;100685.53;;;12.94;100.00
50380;BME280;37474;59.468;18.040;2023-08-30T00:57:03;100681.81;;;12.84;100.00
50380;BME280;37474;59.468;18.040;2023-08-30T00:59:33;100685.34;;;12.83;100.00
50380;BME280;37474;59.468;18.040;2023-08-30T01:02:01;100681.25;;;12.79;100.00
50380;BME280;37474;59.468;18.040;2023-08-30T01:04:30;100680.53;;;12.77;100.00
50380;BME280;37474;59.468;18.040;2023-08-30T01:06:59;100677.16;;;12.89;100.00
50380;BME280;37474;59.468;18.040;2023-08-30T01:09:27;100682.53;;;12.86;100.00
50380;BME280;37474;59.468;18.040;2023-08-30T01:12:00;100677.06;;;12.77;100.00
50380;BME280;37474;59.468;18.040;2023-08-30T01:14:38;100659.50;;;12.80;100.00
50380;BME280;37474;59.468;18.040;2023-08-30T01:17:10;100658.41;;;12.84;100.00
50380;BME280;37474;59.468;18.040;2023-08-30T01:19:45;100636.47;;;12.74;100.00
50380;BME280;37474;59.468;18.040;2023-08-30T01:22:19;100679.66;;;12.91;100.00
50380;BME280;37474;59.468;18.040;2023-08-30T01:24:58;100685.22;;;12.99;100.00
50380;BME280;37474;59.468;18.040;2023-08-30T01:27:33;100695.06;;;13.08;100.00
50380;BME280;37474;59.468;18.040;2023-08-30T01:30:05;100697.38;;;13.13;100.00
50380;BME280;37474;59.468;18.040;2023-08-30T01:32:36;100684.66;;;13.23;100.00
50380;BME280;37474;59.468;18.040;2023-08-30T01:35:05;100690.00;;;13.19;100.00
50380;BME280;37474;59.468;18.040;2023-08-30T01:37:35;100681.94;;;13.24;100.00
50380;BME280;37474;59.468;18.040;2023-08-30T01:40:04;100622.13;;;12.95;100.00
50380;BME280;37474;59.468;18.040;2023-08-30T01:42:36;100689.38;;;13.30;100.00
50380;BME280;37474;59.468;18.040;2023-08-30T01:45:07;100687.34;;;13.21;100.00
50380;BME280;37474;59.468;18.040;2023-08-30T01:47:36;100686.47;;;13.20;100.00
50380;BME280;37474;59.468;18.040;2023-08-30T01:50:06;100681.00;;;13.25;100.00
50380;BME280;37474;59.468;18.040;2023-08-30T01:52:35;100678.03;;;13.17;100.00
50380;BME280;37474;59.468;18.040;2023-08-30T01:55:04;100679.91;;;13.56;100.00
50380;BME280;37474;59.468;18.040;2023-08-30T01:57:35;100691.44;;;13.52;100.00
50380;BME280;37474;59.468;18.040;2023-08-30T02:00:04;100683.97;;;13.33;100.00
50380;BME280;37474;59.468;18.040;2023-08-30T02:02:35;100678.41;;;13.25;100.00
50380;BME280;37474;59.468;18.040;2023-08-30T02:05:06;100689.94;;;13.21;100.00
50380;BME280;37474;59.468;18.040;2023-08-30T02:07:37;100685.41;;;13.10;100.00
50380;BME280;37474;59.468;18.040;2023-08-30T02:10:10;100686.88;;;13.14;100.00
50380;BME280;37474;59.468;18.040;2023-08-30T02:12:47;100684.84;;;13.05;100.00
50380;BME280;37474;59.468;18.040;2023-08-30T02:15:16;100685.69;;;13.06;100.00
50380;BME280;37474;59.468;18.040;2023-08-30T02:17:45;100687.63;;;13.02;100.00
50380;BME280;37474;59.468;18.040;2023-08-30T02:20:14;100654.50;;;12.77;100.00
50380;BME280;37474;59.468;18.040;2023-08-30T02:22:42;100678.63;;;12.93;100.00
50380;BME280;37474;59.468;18.040;2023-08-30T02:25:10;100678.53;;;12.95;100.00
50380;BME280;37474;59.468;18.040;2023-08-30T02:27:38;100670.91;;;12.92;100.00
50380;BME280;37474;59.468;18.040;2023-08-30T02:30:08;100662.38;;;12.90;100.00
50380;BME280;37474;59.468;18.040;2023-08-30T02:32:36;100663.50;;;12.86;100.00
50380;BME280;37474;59.468;18.040;2023-08-30T02:35:05;100667.47;;;12.91;100.00
50380;BME280;37474;59.468;18.040;2023-08-30T02:37:33;100671.47;;;12.97;100.00
50380;BME280;37474;59.468;18.040;2023-08-30T02:40:01;100671.75;;;12.92;100.00
50380;BME280;37474;59.468;18.040;2023-08-30T02:42:29;100668.41;;;12.90;100.00
50380;BME280;37474;59.468;18.040;2023-08-30T02:44:57;100666.38;;;12.95;100.00
50380;BME280;37474;59.468;18.040;2023-08-30T02:47:26;100666.88;;;13.15;100.00
50380;BME280;37474;59.468;18.040;2023-08-30T02:49:55;100661.59;;;13.16;100.00
50380;BME280;37474;59.468;18.040;2023-08-30T02:52:23;100656.16;;;13.19;100.00
50380;BME280;37474;59.468;18.040;2023-08-30T02:54:51;100649.47;;;13.15;100.00
50380;BME280;37474;59.468;18.040;2023-08-30T02:57:19;100651.19;;;13.02;100.00
50380;BME280;37474;59.468;18.040;2023-08-30T02:59:47;100657.53;;;12.98;100.00
50380;BME280;37474;59.468;18.040;2023-08-30T03:02:15;100642.41;;;12.90;100.00
50380;BME280;37474;59.468;18.040;2023-08-30T03:04:44;100653.53;;;12.92;100.00
50380;BME280;37474;59.468;18.040;2023-08-30T03:07:12;100654.34;;;13.07;100.00
50380;BME280;37474;59.468;18.040;2023-08-30T03:09:40;100651.75;;;12.93;100.00
50380;BME280;37474;59.468;18.040;2023-08-30T03:12:08;100653.19;;;12.84;100.00
50380;BME280;37474;59.468;18.040;2023-08-30T03:14:36;100653.16;;;12.99;100.00
50380;BME280;37474;59.468;18.040;2023-08-30T03:17:05;100651.47;;;12.98;100.00
50380;BME280;37474;59.468;18.040;2023-08-30T03:19:33;100650.19;;;12.90;100.00
50380;BME280;37474;59.468;18.040;2023-08-30T03:22:03;100640.19;;;12.84;100.00
50380;BME280;37474;59.468;18.040;2023-08-30T03:24:33;100632.56;;;12.81;100.00
50380;BME280;37474;59.468;18.040;2023-08-30T03:27:02;100630.72;;;12.83;100.00
50380;BME280;37474;59.468;18.040;2023-08-30T03:29:29;100623.19;;;12.79;100.00
50380;BME280;37474;59.468;18.040;2023-08-30T03:31:58;100574.81;;;12.62;100.00
50380;BME280;37474;59.468;18.040;2023-08-30T03:34:26;100615.09;;;12.83;100.00
50380;BME280;37474;59.468;18.040;2023-08-30T03:36:53;100615.81;;;13.00;100.00
50380;BME280;37474;59.468;18.040;2023-08-30T03:39:23;100618.47;;;12.98;100.00
50380;BME280;37474;59.468;18.040;2023-08-30T03:41:51;100623.34;;;12.90;100.00
50380;BME280;37474;59.468;18.040;2023-08-30T03:44:19;100630.88;;;12.94;100.00
50380;BME280;37474;59.468;18.040;2023-08-30T03:46:47;100633.88;;;13.15;100.00
50380;BME280;37474;59.468;18.040;2023-08-30T03:49:15;100631.47;;;13.12;100.00
50380;BME280;37474;59.468;18.040;2023-08-30T03:51:43;100633.63;;;13.06;100.00
50380;BME280;37474;59.468;18.040;2023-08-30T03:54:11;100624.53;;;12.99;100.00
50380;BME280;37474;59.468;18.040;2023-08-30T03:56:44;100615.44;;;12.91;100.00
50380;BME280;37474;59.468;18.040;2023-08-30T03:59:12;100612.44;;;12.98;100.00
50380;BME280;37474;59.468;18.040;2023-08-30T04:01:40;100605.41;;;13.00;100.00
50380;BME280;37474;59.468;18.040;2023-08-30T04:04:08;100612.88;;;13.04;100.00
50380;BME280;37474;59.468;18.040;2023-08-30T04:06:36;100612.50;;;13.25;100.00
50380;BME280;37474;59.468;18.040;2023-08-30T04:09:04;100611.22;;;13.44;100.00
50380;BME280;37474;59.468;18.040;2023-08-30T04:11:34;100578.88;;;13.22;100.00
50380;BME280;37474;59.468;18.040;2023-08-30T04:14:03;100610.53;;;13.28;100.00
50380;BME280;37474;59.468;18.040;2023-08-30T04:16:31;100606.44;;;13.24;100.00
50380;BME280;37474;59.468;18.040;2023-08-30T04:18:59;100610.72;;;13.25;100.00
50380;BME280;37474;59.468;18.040;2023-08-30T04:21:27;100606.44;;;13.24;100.00
50380;BME280;37474;59.468;18.040;2023-08-30T04:23:55;100614.00;;;13.41;100.00
50380;BME280;37474;59.468;18.040;2023-08-30T04:26:24;100603.13;;;13.22;100.00
50380;BME280;37474;59.468;18.040;2023-08-30T04:28:52;100604.38;;;13.29;100.00
50380;BME280;37474;59.468;18.040;2023-08-30T04:31:21;100591.50;;;13.40;100.00
50380;BME280;37474;59.468;18.040;2023-08-30T04:33:49;100590.56;;;13.41;100.00
50380;BME280;37474;59.468;18.040;2023-08-30T04:36:19;100593.66;;;13.61;100.00
50380;BME280;37474;59.468;18.040;2023-08-30T04:38:47;100593.59;;;13.48;100.00
50380;BME280;37474;59.468;18.040;2023-08-30T04:41:28;100589.22;;;13.48;100.00
50380;BME280;37474;59.468;18.040;2023-08-30T04:43:56;100585.41;;;13.67;100.00
50380;BME280;37474;59.468;18.040;2023-08-30T04:46:25;100588.09;;;13.65;100.00
50380;BME280;37474;59.468;18.040;2023-08-30T04:48:53;100586.38;;;13.66;100.00
50380;BME280;37474;59.468;18.040;2023-08-30T04:51:21;100570.50;;;13.56;100.00
50380;BME280;37474;59.468;18.040;2023-08-30T04:53:49;100582.94;;;13.78;100.00
50380;BME280;37474;59.468;18.040;2023-08-30T04:56:17;100583.47;;;13.83;100.00
50380;BME280;37474;59.468;18.040;2023-08-30T04:58:45;100581.47;;;13.74;100.00
50380;BME280;37474;59.468;18.040;2023-08-30T05:01:13;100581.88;;;13.68;100.00
50380;BME280;37474;59.468;18.040;2023-08-30T05:03:43;100585.41;;;13.67;100.00
50380;BME280;37474;59.468;18.040;2023-08-30T05:06:11;100588.09;;;13.65;100.00
50380;BME280;37474;59.468;18.040;2023-08-30T05:08:45;100592.19;;;13.82;100.00
50380;BME280;37474;59.468;18.040;2023-08-30T05:11:13;100583.47;;;13.96;100.00
50380;BME280;37474;59.468;18.040;2023-08-30T05:13:42;100580.97;;;13.94;100.00
50380;BME280;37474;59.468;18.040;2023-08-30T05:16:10;100585.53;;;14.04;100.00
50380;BME280;37474;59.468;18.040;2023-08-30T05:18:38;100580.31;;;13.91;100.00
50380;BME280;37474;59.468;18.040;2023-08-30T05:21:07;100581.97;;;14.05;100.00
50380;BME280;37474;59.468;18.040;2023-08-30T05:23:35;100575.53;;;13.97;100.00
50380;BME280;37474;59.468;18.040;2023-08-30T05:26:07;100563.97;;;14.02;100.00
50380;BME280;37474;59.468;18.040;2023-08-30T05:28:34;100561.34;;;14.02;100.00
50380;BME280;37474;59.468;18.040;2023-08-30T05:31:02;100561.13;;;14.05;100.00
50380;BME280;37474;59.468;18.040;2023-08-30T05:33:32;100568.94;;;14.05;100.00
50380;BME280;37474;59.468;18.040;2023-08-30T05:36:00;100532.69;;;13.76;100.00
50380;BME280;37474;59.468;18.040;2023-08-30T05:38:30;100563.63;;;13.93;100.00
50380;BME280;37474;59.468;18.040;2023-08-30T05:40:58;100559.16;;;13.95;100.00
50380;BME280;37474;59.468;18.040;2023-08-30T05:43:26;100558.94;;;13.98;100.00
50380;BME280;37474;59.468;18.040;2023-08-30T05:45:54;100554.06;;;13.94;100.00
50380;BME280;37474;59.468;18.040;2023-08-30T05:48:28;100548.31;;;14.02;100.00
50380;BME280;37474;59.468;18.040;2023-08-30T05:50:56;100545.47;;;14.05;100.00
50380;BME280;37474;59.468;18.040;2023-08-30T05:53:24;100547.69;;;14.11;100.00
50380;BME280;37474;59.468;18.040;2023-08-30T05:55:53;100546.84;;;14.23;100.00
50380;BME280;37474;59.468;18.040;2023-08-30T05:58:21;100544.13;;;14.24;100.00
50380;BME280;37474;59.468;18.040;2023-08-30T06:00:49;100536.41;;;14.23;100.00
50380;BME280;37474;59.468;18.040;2023-08-30T06:03:17;100498.56;;;14.17;100.00
50380;BME280;37474;59.468;18.040;2023-08-30T06:05:45;100540.34;;;14.41;100.00
50380;BME280;37474;59.468;18.040;2023-08-30T06:08:15;100548.03;;;14.43;100.00
50380;BME280;37474;59.468;18.040;2023-08-30T06:10:44;100538.84;;;14.63;100.00
50380;BME280;37474;59.468;18.040;2023-08-30T06:13:13;100542.16;;;14.65;100.00
50380;BME280;37474;59.468;18.040;2023-08-30T06:15:42;100547.28;;;14.66;100.00
50380;BME280;37474;59.468;18.040;2023-08-30T06:18:11;100550.69;;;14.79;100.00
50380;BME280;37474;59.468;18.040;2023-08-30T06:20:40;100548.84;;;14.69;100.00
50380;BME280;37474;59.468;18.040;2023-08-30T06:23:08;100550.41;;;14.71;100.00
50380;BME280;37474;59.468;18.040;2023-08-30T06:25:36;100551.13;;;14.73;100.00
50380;BME280;37474;59.468;18.040;2023-08-30T06:28:05;100550.63;;;14.92;100.00
50380;BME280;37474;59.468;18.040;2023-08-30T06:30:35;100557.69;;;15.03;100.00
50380;BME280;37474;59.468;18.040;2023-08-30T06:33:04;100551.97;;;14.98;100.00
50380;BME280;37474;59.468;18.040;2023-08-30T06:35:36;100538.06;;;14.97;100.00
50380;BME280;37474;59.468;18.040;2023-08-30T06:38:05;100534.06;;;15.04;100.00
50380;BME280;37474;59.468;18.040;2023-08-30T06:40:35;100536.88;;;15.25;100.00
50380;BME280;37474;59.468;18.040;2023-08-30T06:43:04;100529.16;;;15.24;100.00
50380;BME280;37474;59.468;18.040;2023-08-30T06:45:32;100517.22;;;15.09;100.00
50380;BME280;37474;59.468;18.040;2023-08-30T06:48:01;100518.81;;;15.11;100.00
50380;BME280;37474;59.468;18.040;2023-08-30T06:50:29;100513.41;;;15.01;100.00
50380;BME280;37474;59.468;18.040;2023-08-30T06:52:57;100515.25;;;15.12;100.00
50380;BME280;37474;59.468;18.040;2023-08-30T06:55:25;100507.81;;;14.95;100.00
50380;BME280;37474;59.468;18.040;2023-08-30T06:57:55;100507.91;;;14.93;100.00
50380;BME280;37474;59.468;18.040;2023-08-30T07:00:23;100499.03;;;14.96;100.00
50380;BME280;37474;59.468;18.040;2023-08-30T07:02:51;100496.59;;;15.05;100.00
50380;BME280;37474;59.468;18.040;2023-08-30T07:05:22;100485.88;;;14.97;100.00
50380;BME280;37474;59.468;18.040;2023-08-30T07:07:50;100502.06;;;15.14;100.00
50380;BME280;37474;59.468;18.040;2023-08-30T07:10:18;100503.63;;;15.16;100.00
50380;BME280;37474;59.468;18.040;2023-08-30T07:12:46;100508.28;;;15.24;100.00
50380;BME280;37474;59.468;18.040;2023-08-30T07:15:15;100520.69;;;15.09;100.00
50380;BME280;37474;59.468;18.040;2023-08-30T07:17:44;100511.88;;;15.10;100.00
50380;BME280;37474;59.468;18.040;2023-08-30T07:20:33;100516.59;;;14.94;100.00
50380;BME280;37474;59.468;18.040;2023-08-30T07:23:03;100511.03;;;14.98;100.00
50380;BME280;37474;59.468;18.040;2023-08-30T07:25:34;100514.28;;;15.13;100.00
50380;BME280;37474;59.468;18.040;2023-08-30T07:28:04;100510.09;;;14.99;100.00
50380;BME280;37474;59.468;18.040;2023-08-30T07:30:32;100517.94;;;14.99;100.00
50380;BME280;37474;59.468;18.040;2023-08-30T07:33:04;100511.75;;;15.00;100.00
50380;BME280;37474;59.468;18.040;2023-08-30T07:35:34;100514.97;;;15.04;100.00
50380;BME280;37474;59.468;18.040;2023-08-30T07:38:02;100521.91;;;15.16;100.00
50380;BME280;37474;59.468;18.040;2023-08-30T07:40:33;100521.16;;;15.14;100.00
50380;BME280;37474;59.468;18.040;2023-08-30T07:43:01;100513.59;;;15.11;100.00
50380;BME280;37474;59.468;18.040;2023-08-30T07:45:29;100510.09;;;14.99;100.00
50380;BME280;37474;59.468;18.040;2023-08-30T07:47:57;100500.06;;;14.93;100.00
50380;BME280;37474;59.468;18.040;2023-08-30T07:50:25;100506.75;;;14.97;100.00
50380;BME280;37474;59.468;18.040;2023-08-30T07:52:54;100502.41;;;15.09;100.00
50380;BME280;37474;59.468;18.040;2023-08-30T07:55:22;100509.56;;;15.18;100.00
50380;BME280;37474;59.468;18.040;2023-08-30T07:57:50;100504.72;;;15.25;100.00
50380;BME280;37474;59.468;18.040;2023-08-30T08:00:18;100505.44;;;15.27;100.00
50380;BME280;37474;59.468;18.040;2023-08-30T08:02:46;100498.22;;;15.42;100.00
50380;BME280;37474;59.468;18.040;2023-08-30T08:05:14;100500.16;;;15.62;100.00
50380;BME280;37474;59.468;18.040;2023-08-30T08:07:45;100499.59;;;15.70;100.00
50380;BME280;37474;59.468;18.040;2023-08-30T08:10:14;100497.25;;;15.78;100.00
50380;BME280;37474;59.468;18.040;2023-08-30T08:12:42;100491.78;;;15.92;100.00
50380;BME280;37474;59.468;18.040;2023-08-30T08:15:10;100494.28;;;15.82;100.00
50380;BME280;37474;59.468;18.040;2023-08-30T08:17:39;100488.69;;;15.98;100.00
50380;BME280;37474;59.468;18.040;2023-08-30T08:20:07;100496.03;;;16.16;100.00
50380;BME280;37474;59.468;18.040;2023-08-30T08:22:35;100497.00;;;15.81;100.00
50380;BME280;37474;59.468;18.040;2023-08-30T08:25:04;100493.69;;;16.01;100.00
50380;BME280;37474;59.468;18.040;2023-08-30T08:27:33;100497.25;;;16.00;100.00
50380;BME280;37474;59.468;18.040;2023-08-30T08:30:01;100497.47;;;15.97;100.00
50380;BME280;37474;59.468;18.040;2023-08-30T08:32:30;100498.22;;;16.10;100.00
50380;BME280;37474;59.468;18.040;2023-08-30T08:34:58;100495.13;;;15.83;100.00
50380;BME280;37474;59.468;18.040;2023-08-30T08:37:26;100497.72;;;15.83;100.00
50380;BME280;37474;59.468;18.040;2023-08-30T08:39:54;100493.69;;;15.90;100.00
50380;BME280;37474;59.468;18.040;2023-08-30T08:42:22;100499.38;;;16.06;100.00
50380;BME280;37474;59.468;18.040;2023-08-30T08:44:53;100485.69;;;16.14;100.00
50380;BME280;37474;59.468;18.040;2023-08-30T08:47:22;100485.13;;;16.22;100.00
50380;BME280;37474;59.468;18.040;2023-08-30T08:49:51;100490.56;;;16.19;100.00
50380;BME280;37474;59.468;18.040;2023-08-30T08:52:19;100482.03;;;15.94;100.00
50380;BME280;37474;59.468;18.040;2023-08-30T08:55:00;100483.22;;;15.79;100.00
50380;BME280;37474;59.468;18.040;2023-08-30T08:57:29;100484.38;;;16.20;100.00
50380;BME280;37474;59.468;18.040;2023-08-30T09:00:00;100482.50;;;16.22;100.00
50380;BME280;37474;59.468;18.040;2023-08-30T09:02:28;100479.25;;;16.41;100.00
50380;BME280;37474;59.468;18.040;2023-08-30T09:04:57;100483.81;;;16.27;100.00
50380;BME280;37474;59.468;18.040;2023-08-30T09:07:27;100487.72;;;16.33;100.00
50380;BME280;37474;59.468;18.040;2023-08-30T09:09:57;100484.28;;;16.64;100.00
50380;BME280;37474;59.468;18.040;2023-08-30T09:12:25;100490.13;;;16.68;100.00
50380;BME280;37474;59.468;18.040;2023-08-30T09:14:54;100482.63;;;17.28;100.00
50380;BME280;37474;59.468;18.040;2023-08-30T09:17:35;100476.28;;;17.51;100.00
50380;BME280;37474;59.468;18.040;2023-08-30T09:20:10;100473.38;;;18.15;97.69
50380;BME280;37474;59.468;18.040;2023-08-30T09:22:39;100477.94;;;18.13;100.00
50380;BME280;37474;59.468;18.040;2023-08-30T09:25:09;100472.47;;;18.36;98.34
50380;BME280;37474;59.468;18.040;2023-08-30T09:27:37;100473.09;;;17.99;96.94
50380;BME280;37474;59.468;18.040;2023-08-30T09:30:09;100474.25;;;17.55;99.84
50380;BME280;37474;59.468;18.040;2023-08-30T09:32:42;100474.03;;;17.67;100.00
50380;BME280;37474;59.468;18.040;2023-08-30T09:35:12;100480.78;;;17.70;95.78
50380;BME280;37474;59.468;18.040;2023-08-30T09:37:39;100476.25;;;18.03;94.11
50380;BME280;37474;59.468;18.040;2023-08-30T09:40:08;100491.53;;;17.67;99.12
50380;BME280;37474;59.468;18.040;2023-08-30T09:42:40;100486.38;;;17.56;98.46
50380;BME280;37474;59.468;18.040;2023-08-30T09:45:17;100489.69;;;17.37;96.12
50380;BME280;37474;59.468;18.040;2023-08-30T09:47:48;100486.69;;;17.62;96.65
50380;BME280;37474;59.468;18.040;2023-08-30T09:50:18;100489.22;;;18.04;97.77
50380;BME280;37474;59.468;18.040;2023-08-30T09:52:46;100493.16;;;18.19;93.17
50380;BME280;37474;59.468;18.040;2023-08-30T09:55:16;100491.09;;;18.23;92.36
50380;BME280;37474;59.468;18.040;2023-08-30T09:57:46;100484.59;;;18.17;92.28
50380;BME280;37474;59.468;18.040;2023-08-30T10:00:19;100483.69;;;17.98;91.34
50380;BME280;37474;59.468;18.040;2023-08-30T10:02:48;100486.78;;;17.72;95.24
50380;BME280;37474;59.468;18.040;2023-08-30T10:05:37;100489.41;;;17.82;96.48
50380;BME280;37474;59.468;18.040;2023-08-30T10:08:07;100486.22;;;17.99;91.76
50380;BME280;37474;59.468;18.040;2023-08-30T10:10:35;100488.69;;;18.01;92.90
50380;BME280;37474;59.468;18.040;2023-08-30T10:13:03;100481.69;;;18.11;96.14
50380;BME280;37474;59.468;18.040;2023-08-30T10:15:45;100485.81;;;18.13;95.92
50380;BME280;37474;59.468;18.040;2023-08-30T10:18:19;100484.81;;;17.95;92.71
50380;BME280;37474;59.468;18.040;2023-08-30T10:20:52;100487.81;;;17.69;95.12
50380;BME280;37474;59.468;18.040;2023-08-30T10:23:22;100489.41;;;17.82;95.67
50380;BME280;37474;59.468;18.040;2023-08-30T10:25:52;100486.75;;;18.03;93.96
50380;BME280;37474;59.468;18.040;2023-08-30T10:28:22;100486.69;;;17.83;93.35
50380;BME280;37474;59.468;18.040;2023-08-30T10:30:53;100483.50;;;18.20;95.58
50380;BME280;37474;59.468;18.040;2023-08-30T10:33:23;100489.22;;;18.44;93.89
50380;BME280;37474;59.468;18.040;2023-08-30T10:35:52;100446.84;;;17.38;97.45
50380;BME280;37474;59.468;18.040;2023-08-30T10:38:26;100483.25;;;17.62;96.83
50380;BME280;37474;59.468;18.040;2023-08-30T10:40:55;100483.47;;;17.49;97.96
50380;BME280;37474;59.468;18.040;2023-08-30T10:43:30;100480.69;;;17.51;98.47
50380;BME280;37474;59.468;18.040;2023-08-30T10:46:03;100485.06;;;17.71;100.00
50380;BME280;37474;59.468;18.040;2023-08-30T10:48:35;100488.59;;;17.81;96.21
50380;BME280;37474;59.468;18.040;2023-08-30T10:51:05;100488.59;;;18.12;98.07
50380;BME280;37474;59.468;18.040;2023-08-30T10:53:34;100493.72;;;18.23;96.42
50380;BME280;37474;59.468;18.040;2023-08-30T10:56:10;100492.56;;;18.66;93.55
50380;BME280;37474;59.468;18.040;2023-08-30T10:58:40;100489.22;;;18.04;94.48
50380;BME280;37474;59.468;18.040;2023-08-30T11:01:10;100480.97;;;17.99;95.28
50380;BME280;37474;59.468;18.040;2023-08-30T11:03:41;100478.81;;;18.24;92.77
50380;BME280;37474;59.468;18.040;2023-08-30T11:06:13;100480.34;;;18.36;92.95
50380;BME280;37474;59.468;18.040;2023-08-30T11:08:43;100480.72;;;18.71;90.91
50380;BME280;37474;59.468;18.040;2023-08-30T11:11:11;100434.75;;;18.37;88.61
50380;BME280;37474;59.468;18.040;2023-08-30T11:13:41;100483.97;;;18.54;91.69
50380;BME280;37474;59.468;18.040;2023-08-30T11:16:09;100481.66;;;18.70;91.81
50380;BME280;37474;59.468;18.040;2023-08-30T11:18:40;100479.94;;;18.31;91.67
50380;BME280;37474;59.468;18.040;2023-08-30T11:21:09;100480.50;;;18.34;89.12
50380;BME280;37474;59.468;18.040;2023-08-30T11:23:39;100485.00;;;18.72;89.98
50380;BME280;37474;59.468;18.040;2023-08-30T11:26:07;100483.03;;;18.55;86.36
50380;BME280;37474;59.468;18.040;2023-08-30T11:28:35;100478.69;;;18.35;88.25
50380;BME280;37474;59.468;18.040;2023-08-30T11:31:08;100479.13;;;18.40;89.25
50380;BME280;37474;59.468;18.040;2023-08-30T11:33:36;100483.06;;;18.75;88.15
50380;BME280;37474;59.468;18.040;2023-08-30T11:36:06;100495.56;;;18.32;89.96
50380;BME280;37474;59.468;18.040;2023-08-30T11:38:34;100491.50;;;18.18;86.57
50380;BME280;37474;59.468;18.040;2023-08-30T11:41:02;100479.69;;;17.93;88.28
50380;BME280;37474;59.468;18.040;2023-08-30T11:43:31;100481.25;;;18.06;89.89
50380;BME280;37474;59.468;18.040;2023-08-30T11:45:59;100466.94;;;18.29;89.43
50380;BME280;37474;59.468;18.040;2023-08-30T11:48:28;100451.59;;;18.25;88.86
50380;BME280;37474;59.468;18.040;2023-08-30T11:50:59;100446.94;;;18.28;87.33
50380;BME280;37474;59.468;18.040;2023-08-30T11:53:29;100468.47;;;18.32;90.84
50380;BME280;37474;59.468;18.040;2023-08-30T11:55:57;100456.47;;;18.39;90.08
50380;BME280;37474;59.468;18.040;2023-08-30T11:58:25;100470.38;;;18.20;89.50
50380;BME280;37474;59.468;18.040;2023-08-30T12:00:56;100468.06;;;18.27;87.92
50380;BME280;37474;59.468;18.040;2023-08-30T12:03:26;100466.38;;;18.16;91.94
50380;BME280;37474;59.468;18.040;2023-08-30T12:05:55;100466.69;;;17.92;85.89
50380;BME280;37474;59.468;18.040;2023-08-30T12:08:24;100466.84;;;17.90;89.98
50380;BME280;37474;59.468;18.040;2023-08-30T12:10:55;100463.28;;;18.01;88.72
50380;BME280;37474;59.468;18.040;2023-08-30T12:13:26;100465.72;;;17.93;87.88
50380;BME280;37474;59.468;18.040;2023-08-30T12:15:55;100472.31;;;17.78;90.56
50380;BME280;37474;59.468;18.040;2023-08-30T12:18:24;100467.22;;;17.86;93.29
50380;BME280;37474;59.468;18.040;2023-08-30T12:20:58;100469.41;;;17.81;91.12
50380;BME280;37474;59.468;18.040;2023-08-30T12:23:28;100431.28;;;17.46;91.45
50380;BME280;37474;59.468;18.040;2023-08-30T12:26:02;100466.63;;;17.52;90.78
50380;BME280;37474;59.468;18.040;2023-08-30T12:28:31;100422.81;;;17.12;91.38
50380;BME280;37474;59.468;18.040;2023-08-30T12:31:00;100469.31;;;17.40;93.50
50380;BME280;37474;59.468;18.040;2023-08-30T12:33:29;100464.91;;;17.41;93.40
50380;BME280;37474;59.468;18.040;2023-08-30T12:36:01;100474.03;;;17.26;93.33
50380;BME280;37474;59.468;18.040;2023-08-30T12:38:30;100464.59;;;17.34;94.94
50380;BME280;37474;59.468;18.040;2023-08-30T12:40:58;100468.94;;;17.45;95.82
50380;BME280;37474;59.468;18.040;2023-08-30T12:43:27;100467.44;;;17.52;95.86